Time;durP1;ratioP1;P1;durP2;ratioP2;P2;SDS_P1;SDS_P2;PMS_P1;PMS_P2;Temp;Humidity;BMP_temperature;BMP_pressure;BME280_temperature;BME280_humidity;BME280_pressure;Samples;Min_cycle;Max_cycle;Signal;HPM_P1;HPM_P2
2021/01/28 00:01:56;;;;;;;1.60;1.20;;;5.70;98.20;;;;;;4977000;28;21049;-76
2021/01/28 00:04:23;;;;;;;1.70;1.50;;;5.70;98.20;;;;;;4981238;28;20533;-75
2021/01/28 00:06:49;;;;;;;1.60;1.30;;;5.70;98.20;;;;;;4974201;28;20461;-75
2021/01/28 00:09:16;;;;;;;1.67;1.30;;;5.70;98.20;;;;;;4974430;28;20493;-76
2021/01/28 00:11:43;;;;;;;1.67;1.30;;;5.70;98.20;;;;;;4979666;28;20558;-76
2021/01/28 00:14:09;;;;;;;1.60;1.20;;;5.70;98.20;;;;;;4983008;28;20465;-76
2021/01/28 00:16:36;;;;;;;1.60;1.20;;;5.70;98.20;;;;;;4974235;28;20977;-75
2021/01/28 00:19:03;;;;;;;1.67;1.23;;;5.70;98.20;;;;;;4973244;28;20466;-76
2021/01/28 00:21:29;;;;;;;1.67;1.30;;;5.70;98.20;;;;;;4979286;28;20486;-76
2021/01/28 00:23:55;;;;;;;2.00;1.80;;;5.70;98.20;;;;;;4980709;28;20888;-76
2021/01/28 00:26:23;;;;;;;1.63;1.30;;;5.70;98.20;;;;;;4973533;28;20553;-76
2021/01/28 00:28:49;;;;;;;1.70;1.30;;;5.70;98.20;;;;;;4984864;28;20888;-76
2021/01/28 00:31:16;;;;;;;1.60;1.20;;;5.70;98.20;;;;;;4976247;28;20525;-76
2021/01/28 00:33:42;;;;;;;1.60;1.30;;;5.70;98.20;;;;;;4983806;28;20517;-75
2021/01/28 00:36:09;;;;;;;1.63;1.30;;;5.70;98.20;;;;;;4979125;28;20493;-76
2021/01/28 00:38:37;;;;;;;1.63;1.20;;;5.70;98.20;;;;;;4981652;28;20466;-76
2021/01/28 00:41:06;;;;;;;1.67;1.30;;;5.70;98.20;;;;;;4981754;28;20543;-76
2021/01/28 00:43:33;;;;;;;1.60;1.30;;;5.70;98.20;;;;;;4974156;28;20497;-76
2021/01/28 00:46:00;;;;;;;1.60;1.30;;;5.70;98.20;;;;;;4975043;28;20517;-76
2021/01/28 00:48:28;;;;;;;1.67;1.30;;;5.70;98.20;;;;;;4977514;28;20525;-76
2021/01/28 00:50:56;;;;;;;1.70;1.40;;;5.70;98.20;;;;;;4976011;28;20490;-76
2021/01/28 00:53:23;;;;;;;1.70;1.40;;;5.70;98.20;;;;;;4971953;28;20506;-76
2021/01/28 00:55:50;;;;;;;1.70;1.37;;;5.70;98.20;;;;;;4978345;28;21019;-75
2021/01/28 00:58:19;;;;;;;2.07;1.87;;;5.60;98.20;;;;;;4978863;28;20548;-76
2021/01/28 01:00:47;;;;;;;1.80;1.60;;;5.60;98.20;;;;;;4972777;28;20485;-76
2021/01/28 01:03:16;;;;;;;1.63;1.30;;;5.60;98.20;;;;;;4979887;28;20523;-76
2021/01/28 01:05:43;;;;;;;1.67;1.30;;;5.60;98.20;;;;;;4978719;28;20465;-76
2021/01/28 01:08:12;;;;;;;1.60;1.20;;;5.60;98.20;;;;;;4984671;28;20749;-76
2021/01/28 01:10:42;;;;;;;1.60;1.30;;;5.70;98.20;;;;;;4982806;28;20501;-76
2021/01/28 01:13:10;;;;;;;1.60;1.30;;;5.70;98.20;;;;;;4973866;28;20541;-76
2021/01/28 01:15:38;;;;;;;1.60;1.20;;;5.70;98.20;;;;;;4982204;28;20499;-76
2021/01/28 01:18:07;;;;;;;1.70;1.30;;;5.70;98.20;;;;;;4976746;28;20555;-76
2021/01/28 01:20:33;;;;;;;1.63;1.30;;;5.70;98.20;;;;;;4970231;28;21107;-75
2021/01/28 01:23:00;;;;;;;1.70;1.30;;;5.70;98.20;;;;;;4977158;28;21119;-76
2021/01/28 01:25:26;;;;;;;1.60;1.20;;;5.70;98.20;;;;;;4980031;28;20497;-76
2021/01/28 01:27:53;;;;;;;1.60;1.30;;;5.70;98.20;;;;;;4977296;28;20942;-76
2021/01/28 01:30:22;;;;;;;1.63;1.30;;;5.70;98.20;;;;;;4971436;28;20472;-76
2021/01/28 01:32:49;;;;;;;1.60;1.20;;;5.70;98.20;;;;;;4973282;28;21189;-76
2021/01/28 01:35:18;;;;;;;1.63;1.30;;;5.70;98.20;;;;;;4976764;28;20510;-76
2021/01/28 01:37:44;;;;;;;1.63;1.30;;;5.70;98.20;;;;;;4980629;28;20490;-76
2021/01/28 01:40:14;;;;;;;1.70;1.30;;;5.70;98.20;;;;;;4974452;28;20600;-76
2021/01/28 01:42:43;;;;;;;1.60;1.30;;;5.70;98.20;;;;;;4972843;28;20911;-76
2021/01/28 01:45:10;;;;;;;1.60;1.30;;;5.70;98.20;;;;;;4978449;28;20465;-76
2021/01/28 01:47:46;;;;;;;1.60;1.23;;;5.70;98.20;;;;;;4978793;28;20571;-75
2021/01/28 01:50:28;;;;;;;1.60;1.30;;;5.70;98.20;;;;;;4983779;28;20546;-76
2021/01/28 01:52:55;;;;;;;1.60;1.33;;;5.70;98.20;;;;;;4977521;28;20895;-76
2021/01/28 01:55:22;;;;;;;1.60;1.20;;;5.70;98.20;;;;;;4979884;28;20462;-76
2021/01/28 01:57:49;;;;;;;1.63;1.30;;;5.70;98.20;;;;;;4980231;28;20492;-76
2021/01/28 02:00:18;;;;;;;1.60;1.30;;;5.70;98.20;;;;;;4979820;28;20493;-76
2021/01/28 02:02:48;;;;;;;1.60;1.30;;;5.70;98.20;;;;;;4986872;28;20493;-76
2021/01/28 02:05:21;;;;;;;1.63;1.30;;;5.70;98.20;;;;;;4978757;28;20473;-76
2021/01/28 02:07:49;;;;;;;1.63;1.20;;;5.70;98.20;;;;;;4977202;28;20549;-76
2021/01/28 02:10:17;;;;;;;1.60;1.30;;;5.80;98.20;;;;;;4979736;28;20501;-76
2021/01/28 02:12:43;;;;;;;1.67;1.30;;;5.80;98.20;;;;;;4971470;28;20549;-75
2021/01/28 02:15:12;;;;;;;1.63;1.37;;;5.80;98.20;;;;;;4975447;28;20469;-75
2021/01/28 02:17:41;;;;;;;1.70;1.50;;;5.70;98.20;;;;;;4979522;28;20513;-75
2021/01/28 02:20:40;;;;;;;1.63;1.30;;;5.80;98.20;;;;;;4980324;28;20561;-75
2021/01/28 02:23:15;;;;;;;1.70;1.50;;;5.70;98.20;;;;;;4962929;28;20910;-75
2021/01/28 02:25:45;;;;;;;1.70;1.47;;;5.70;98.20;;;;;;4974882;28;20477;-75
2021/01/28 02:28:14;;;;;;;1.60;1.30;;;5.70;98.20;;;;;;4971081;28;20520;-75
2021/01/28 02:30:41;;;;;;;1.60;1.30;;;5.70;98.20;;;;;;4974885;28;21024;-75
2021/01/28 02:33:09;;;;;;;1.70;1.40;;;5.70;98.20;;;;;;4970245;28;20972;-75
2021/01/28 02:35:36;;;;;;;1.60;1.30;;;5.70;98.20;;;;;;4966104;28;20516;-75
2021/01/28 02:38:07;;;;;;;1.60;1.30;;;5.70;98.20;;;;;;4981863;28;20493;-75
2021/01/28 02:40:34;;;;;;;1.60;1.27;;;5.70;98.20;;;;;;4971170;28;20624;-74
2021/01/28 02:43:01;;;;;;;1.60;1.30;;;5.70;98.20;;;;;;4969565;28;20568;-75
2021/01/28 02:45:30;;;;;;;1.63;1.30;;;5.70;98.20;;;;;;4981353;28;20462;-76
2021/01/28 02:47:58;;;;;;;1.60;1.30;;;5.70;98.20;;;;;;4981028;28;20555;-75
2021/01/28 02:50:28;;;;;;;1.70;1.40;;;5.70;98.20;;;;;;4973190;28;20957;-75
2021/01/28 02:52:56;;;;;;;1.60;1.30;;;5.70;98.20;;;;;;4973472;28;20470;-74
2021/01/28 02:55:23;;;;;;;1.60;1.30;;;5.70;98.20;;;;;;4982000;28;20543;-75
2021/01/28 02:57:50;;;;;;;1.60;1.20;;;5.70;98.20;;;;;;4977871;28;21012;-75
2021/01/28 03:00:22;;;;;;;1.93;1.73;;;5.70;98.20;;;;;;4971166;28;20545;-75
2021/01/28 03:02:50;;;;;;;1.70;1.40;;;5.70;98.20;;;;;;4970423;28;20497;-76
2021/01/28 03:05:17;;;;;;;1.70;1.40;;;5.70;98.20;;;;;;4977787;28;20466;-74
2021/01/28 03:07:43;;;;;;;1.60;1.30;;;5.70;98.20;;;;;;4978323;28;20597;-75
2021/01/28 03:10:12;;;;;;;2.03;1.83;;;5.70;98.20;;;;;;4946347;28;699082;-75
2021/01/28 03:12:38;;;;;;;1.70;1.40;;;5.70;98.20;;;;;;4979269;28;20642;-75
2021/01/28 03:15:06;;;;;;;1.60;1.20;;;5.70;98.20;;;;;;4980432;28;20490;-74
2021/01/28 03:17:34;;;;;;;1.60;1.20;;;5.70;98.20;;;;;;4972378;28;20641;-74
2021/01/28 03:20:00;;;;;;;1.63;1.30;;;5.70;98.20;;;;;;4971269;28;21048;-75
2021/01/28 03:22:26;;;;;;;1.60;1.23;;;5.70;98.20;;;;;;4978133;28;20536;-75
2021/01/28 03:24:53;;;;;;;1.70;1.40;;;5.70;98.20;;;;;;4981475;28;20470;-74
2021/01/28 03:27:19;;;;;;;1.70;1.40;;;5.60;98.20;;;;;;4972882;28;20852;-75
2021/01/28 03:29:46;;;;;;;1.70;1.50;;;5.60;98.20;;;;;;4981743;28;20489;-75
2021/01/28 03:32:12;;;;;;;1.67;1.40;;;5.60;98.20;;;;;;4975969;28;20497;-73
2021/01/28 03:34:40;;;;;;;1.70;1.30;;;5.60;98.20;;;;;;4982537;28;20500;-76
2021/01/28 03:37:06;;;;;;;1.70;1.43;;;5.60;98.20;;;;;;4977448;28;20489;-76
2021/01/28 03:39:33;;;;;;;1.63;1.30;;;5.60;98.20;;;;;;4984359;28;20544;-75
2021/01/28 03:41:59;;;;;;;3.63;3.33;;;5.60;98.20;;;;;;4989213;28;20498;-76
2021/01/28 03:44:26;;;;;;;1.63;1.30;;;5.60;98.20;;;;;;4976626;28;20465;-75
2021/01/28 03:46:52;;;;;;;1.63;1.30;;;5.60;98.20;;;;;;4978377;28;20458;-76
2021/01/28 03:49:18;;;;;;;1.60;1.30;;;5.60;98.20;;;;;;4986115;28;20463;-76
2021/01/28 03:51:46;;;;;;;1.67;1.30;;;5.50;98.20;;;;;;4975551;28;20993;-76
2021/01/28 03:54:12;;;;;;;1.63;1.30;;;5.50;98.20;;;;;;4973085;28;20493;-76
2021/01/28 03:56:39;;;;;;;1.60;1.30;;;5.50;98.20;;;;;;4991829;28;20485;-76
2021/01/28 03:59:05;;;;;;;1.60;1.20;;;5.50;98.20;;;;;;4985771;28;20470;-75
2021/01/28 04:01:32;;;;;;;1.60;1.30;;;5.50;98.20;;;;;;4981219;28;20477;-75
2021/01/28 04:03:58;;;;;;;1.67;1.40;;;5.50;98.20;;;;;;4981406;28;20502;-75
2021/01/28 04:06:25;;;;;;;1.60;1.30;;;5.50;98.20;;;;;;4988772;28;20516;-76
2021/01/28 04:08:52;;;;;;;1.70;1.40;;;5.50;98.20;;;;;;4983747;28;21236;-76
2021/01/28 04:11:18;;;;;;;1.60;1.40;;;5.50;98.20;;;;;;4976512;28;20497;-75
2021/01/28 04:13:45;;;;;;;1.70;1.40;;;5.50;98.20;;;;;;4983967;28;20476;-76
2021/01/28 04:16:11;;;;;;;1.60;1.30;;;5.50;98.20;;;;;;4982791;28;20960;-75
2021/01/28 04:18:38;;;;;;;3.53;3.13;;;5.50;98.20;;;;;;4976627;28;21012;-76
2021/01/28 04:21:05;;;;;;;1.67;1.30;;;5.40;98.20;;;;;;4986426;28;20488;-75
2021/01/28 04:23:31;;;;;;;1.63;1.30;;;5.40;98.20;;;;;;4982336;28;20527;-76
2021/01/28 04:25:59;;;;;;;1.60;1.20;;;5.40;98.20;;;;;;4984337;28;20489;-76
2021/01/28 04:28:25;;;;;;;1.63;1.40;;;5.40;98.20;;;;;;4974499;28;20889;-75
2021/01/28 04:30:51;;;;;;;1.60;1.40;;;5.40;98.20;;;;;;4973556;28;20520;-76
2021/01/28 04:33:18;;;;;;;1.60;1.30;;;5.40;98.20;;;;;;4972597;28;20513;-76
2021/01/28 04:35:45;;;;;;;1.70;1.40;;;5.40;98.20;;;;;;4980958;28;20472;-75
2021/01/28 04:38:11;;;;;;;1.63;1.30;;;5.40;98.20;;;;;;4978862;28;20792;-76
2021/01/28 04:40:41;;;;;;;1.63;1.30;;;5.40;98.20;;;;;;4986559;28;20492;-76
2021/01/28 04:43:18;;;;;;;1.67;1.40;;;5.30;98.20;;;;;;4987051;28;20553;-76
2021/01/28 04:45:45;;;;;;;1.70;1.40;;;5.30;98.20;;;;;;4981453;28;20519;-75
2021/01/28 04:48:12;;;;;;;1.60;1.27;;;5.30;98.20;;;;;;4982090;28;20516;-76
2021/01/28 04:50:42;;;;;;;1.63;1.30;;;5.30;98.20;;;;;;4989090;28;20477;-75
2021/01/28 04:53:14;;;;;;;1.63;1.30;;;5.30;98.20;;;;;;4979993;28;20501;-76
2021/01/28 04:55:42;;;;;;;1.67;1.40;;;5.30;98.20;;;;;;4975677;28;20470;-76
2021/01/28 04:58:10;;;;;;;1.60;1.40;;;5.30;98.20;;;;;;4977369;28;20468;-76
2021/01/28 05:00:37;;;;;;;1.60;1.30;;;5.30;98.20;;;;;;4982922;28;20560;-76
2021/01/28 05:03:15;;;;;;;1.70;1.40;;;5.30;98.20;;;;;;4977190;28;20454;-76
2021/01/28 05:05:42;;;;;;;1.63;1.30;;;5.30;98.20;;;;;;4979203;28;20465;-76
2021/01/28 05:08:08;;;;;;;1.63;1.30;;;5.20;98.20;;;;;;4981174;28;20465;-76
2021/01/28 05:10:45;;;;;;;1.60;1.30;;;5.20;98.20;;;;;;4979661;28;21016;-77
2021/01/28 05:13:24;;;;;;;1.60;1.30;;;5.20;98.20;;;;;;4976195;28;20560;-76
2021/01/28 05:15:51;;;;;;;1.60;1.30;;;5.20;98.20;;;;;;4979443;28;20551;-76
2021/01/28 05:18:32;;;;;;;1.60;1.30;;;5.20;98.20;;;;;;4976903;28;20462;-76
2021/01/28 05:21:11;;;;;;;1.70;1.40;;;5.20;98.20;;;;;;4972429;28;20489;-76
2021/01/28 05:23:41;;;;;;;1.60;1.30;;;5.10;98.20;;;;;;4979190;28;20505;-76
2021/01/28 05:26:31;;;;;;;1.60;1.30;;;5.10;98.20;;;;;;4983255;28;20542;-77
2021/01/28 05:29:14;;;;;;;1.70;1.30;;;5.10;98.20;;;;;;4987579;28;20485;-77
2021/01/28 05:31:41;;;;;;;1.60;1.30;;;5.10;98.20;;;;;;4975242;28;20485;-78
2021/01/28 05:34:09;;;;;;;1.60;1.30;;;5.10;98.20;;;;;;4980342;28;20458;-76
2021/01/28 05:36:38;;;;;;;1.67;1.33;;;5.00;98.20;;;;;;4983479;28;20520;-77
2021/01/28 05:39:20;;;;;;;1.67;1.40;;;5.00;98.20;;;;;;4974689;28;20474;-76
2021/01/28 05:41:49;;;;;;;1.70;1.50;;;5.00;98.20;;;;;;4975620;28;20863;-76
2021/01/28 05:44:23;;;;;;;1.70;1.40;;;5.00;98.20;;;;;;4982285;28;20829;-74
2021/01/28 05:47:04;;;;;;;1.70;1.40;;;5.00;98.20;;;;;;4977332;28;20494;-77
2021/01/28 05:49:31;;;;;;;1.67;1.40;;;5.00;98.20;;;;;;4973597;28;20961;-76
2021/01/28 05:52:10;;;;;;;1.70;1.57;;;4.90;98.20;;;;;;4982853;28;20477;-76
2021/01/28 05:54:38;;;;;;;1.67;1.30;;;5.00;98.20;;;;;;4980595;28;20462;-76
2021/01/28 05:57:10;;;;;;;1.70;1.50;;;4.90;98.20;;;;;;4980690;28;20535;-76
2021/01/28 05:59:45;;;;;;;1.60;1.30;;;4.90;98.20;;;;;;4982400;28;20494;-77
2021/01/28 06:02:32;;;;;;;1.60;1.30;;;4.90;98.20;;;;;;4978224;28;20489;-77
2021/01/28 06:05:24;;;;;;;1.63;1.30;;;4.90;98.20;;;;;;4974509;28;20462;-77
2021/01/28 06:08:06;;;;;;;1.67;1.30;;;4.90;98.20;;;;;;4968995;28;20501;-76
2021/01/28 06:11:00;;;;;;;1.70;1.40;;;5.00;98.20;;;;;;4982290;28;20486;-77
2021/01/28 06:13:55;;;;;;;1.70;1.50;;;4.90;98.20;;;;;;4970455;28;20480;-77
2021/01/28 06:16:28;;;;;;;1.70;1.40;;;4.90;98.20;;;;;;4983663;28;20481;-76
2021/01/28 06:19:32;;;;;;;1.67;1.37;;;4.90;98.20;;;;;;4987801;28;20983;-76
2021/01/28 06:22:01;;;;;;;1.70;1.47;;;4.90;98.20;;;;;;4983947;28;20477;-76
2021/01/28 06:24:53;;;;;;;1.60;1.30;;;5.00;98.20;;;;;;4992607;28;20495;-78
2021/01/28 06:27:52;;;;;;;1.60;1.30;;;4.90;98.20;;;;;;4992918;28;20472;-77
2021/01/28 06:30:41;;;;;;;1.70;1.47;;;4.90;98.20;;;;;;4978502;28;20844;-76
2021/01/28 06:34:07;;;;;;;1.67;1.40;;;5.00;98.20;;;;;;4987432;28;20514;-77
2021/01/28 06:36:59;;;;;;;1.60;1.40;;;5.00;98.20;;;;;;4941663;28;20540;-77
2021/01/28 06:39:30;;;;;;;1.60;1.30;;;5.00;98.20;;;;;;4980107;28;20501;-78
2021/01/28 06:42:05;;;;;;;1.67;1.40;;;4.90;98.20;;;;;;4977672;28;20485;-77
2021/01/28 06:44:42;;;;;;;1.60;1.37;;;4.90;98.20;;;;;;4983998;28;20461;-77
2021/01/28 06:47:15;;;;;;;1.70;1.40;;;4.90;98.20;;;;;;4986115;28;20501;-78
2021/01/28 06:49:50;;;;;;;1.70;1.47;;;4.90;98.20;;;;;;4977491;28;20469;-77
2021/01/28 06:52:36;;;;;;;1.60;1.30;;;4.90;98.20;;;;;;4981248;28;20496;-77
2021/01/28 06:55:08;;;;;;;1.70;1.40;;;4.90;98.20;;;;;;4981855;28;20460;-76
2021/01/28 06:57:43;;;;;;;1.70;1.30;;;4.90;98.20;;;;;;4984374;28;20521;-78
2021/01/28 07:00:22;;;;;;;1.60;1.30;;;4.90;98.20;;;;;;4977457;28;20500;-77
2021/01/28 07:03:00;;;;;;;1.60;1.30;;;4.90;98.20;;;;;;4979369;28;20512;-77
2021/01/28 07:05:38;;;;;;;1.70;1.37;;;4.80;98.20;;;;;;4978742;28;20466;-77
2021/01/28 07:08:17;;;;;;;1.60;1.30;;;4.80;98.20;;;;;;4988799;28;21387;-76
2021/01/28 07:10:43;;;;;;;1.70;1.40;;;4.80;98.20;;;;;;4994209;28;20512;-76
2021/01/28 07:13:13;;;;;;;1.70;1.50;;;4.80;98.20;;;;;;4978548;28;20496;-78
2021/01/28 07:15:44;;;;;;;1.60;1.30;;;4.80;98.20;;;;;;4982588;28;20488;-75
2021/01/28 07:18:16;;;;;;;1.63;1.30;;;4.80;98.20;;;;;;4979682;28;20517;-75
2021/01/28 07:21:00;;;;;;;1.70;1.40;;;4.80;98.20;;;;;;4982534;28;20783;-76
2021/01/28 07:23:29;;;;;;;1.60;1.30;;;4.80;98.20;;;;;;4978572;28;21019;-76
2021/01/28 07:26:10;;;;;;;2.13;1.93;;;4.80;98.20;;;;;;4979287;28;20466;-76
2021/01/28 07:28:37;;;;;;;1.60;1.30;;;4.80;98.20;;;;;;4977983;28;20512;-75
2021/01/28 07:31:25;;;;;;;1.70;1.40;;;4.80;98.20;;;;;;4979470;28;20478;-76
2021/01/28 07:34:08;;;;;;;1.60;1.30;;;4.80;98.20;;;;;;4978622;28;21045;-76
2021/01/28 07:36:41;;;;;;;1.63;1.30;;;4.80;98.20;;;;;;4985155;28;20544;-75
2021/01/28 07:39:41;;;;;;;1.70;1.47;;;4.80;98.20;;;;;;4979716;28;20505;-75
2021/01/28 07:42:25;;;;;;;1.70;1.40;;;4.80;98.20;;;;;;4978346;28;20532;-75
2021/01/28 07:44:53;;;;;;;1.60;1.50;;;4.80;98.20;;;;;;4977759;28;20458;-76
2021/01/28 07:47:56;;;;;;;1.60;1.30;;;4.70;98.20;;;;;;4977323;28;20548;-77
2021/01/28 07:50:40;;;;;;;1.60;1.30;;;4.80;98.20;;;;;;4978366;28;20572;-76
2021/01/28 07:53:37;;;;;;;1.63;1.30;;;4.70;98.20;;;;;;4977081;28;20524;-76
2021/01/28 07:56:05;;;;;;;1.60;1.30;;;4.70;98.20;;;;;;4979424;28;20454;-76
2021/01/28 07:58:36;;;;;;;1.70;1.40;;;4.80;98.20;;;;;;4977112;28;20766;-76
2021/01/28 08:01:10;;;;;;;1.60;1.30;;;4.70;98.20;;;;;;4982580;28;20493;-77
2021/01/28 08:03:59;;;;;;;1.83;1.63;;;4.70;98.20;;;;;;4978199;28;20497;-76
2021/01/28 08:06:26;;;;;;;1.60;1.30;;;4.70;98.20;;;;;;4983499;28;20512;-77
2021/01/28 08:09:04;;;;;;;2.47;2.27;;;4.70;98.20;;;;;;4976198;28;20458;-78
2021/01/28 08:11:32;;;;;;;1.63;1.30;;;4.70;98.20;;;;;;4980563;28;20839;-76
2021/01/28 08:13:59;;;;;;;1.60;1.30;;;4.70;98.20;;;;;;4984282;28;20698;-78
2021/01/28 08:16:26;;;;;;;1.60;1.20;;;4.70;98.20;;;;;;4978462;28;21008;-77
2021/01/28 08:19:07;;;;;;;1.60;1.30;;;4.70;98.20;;;;;;4976190;28;20473;-77
2021/01/28 08:21:33;;;;;;;1.60;1.30;;;4.70;98.20;;;;;;4982296;28;20516;-77
2021/01/28 08:24:12;;;;;;;1.63;1.40;;;4.70;98.20;;;;;;4978826;28;20561;-77
2021/01/28 08:26:42;;;;;;;1.70;1.40;;;4.70;98.20;;;;;;4983526;28;20532;-78
2021/01/28 08:29:14;;;;;;;1.63;1.30;;;4.70;98.20;;;;;;4980783;28;20461;-77
2021/01/28 08:31:44;;;;;;;1.60;1.30;;;4.70;98.20;;;;;;4974121;28;20492;-77
2021/01/28 08:34:15;;;;;;;1.67;1.40;;;4.70;98.20;;;;;;4973477;28;20565;-76
2021/01/28 08:36:46;;;;;;;1.70;1.53;;;4.70;98.20;;;;;;4978709;28;20532;-77
2021/01/28 08:39:15;;;;;;;1.70;1.57;;;4.70;98.20;;;;;;4975515;28;20589;-77
2021/01/28 08:41:44;;;;;;;1.67;1.37;;;4.70;98.20;;;;;;4971627;28;20834;-78
2021/01/28 08:44:14;;;;;;;1.63;1.40;;;4.80;98.20;;;;;;4977845;28;20545;-77
2021/01/28 08:46:41;;;;;;;1.63;1.33;;;4.80;98.20;;;;;;4974165;28;20454;-76
2021/01/28 08:49:10;;;;;;;1.63;1.30;;;4.80;98.20;;;;;;4971975;28;20469;-79
2021/01/28 08:51:39;;;;;;;1.67;1.40;;;4.80;98.20;;;;;;4974238;28;20563;-77
2021/01/28 08:54:17;;;;;;;1.60;1.30;;;4.80;98.20;;;;;;4972029;28;20556;-80
2021/01/28 08:56:45;;;;;;;1.60;1.30;;;4.80;98.20;;;;;;4972768;28;20520;-78
2021/01/28 08:59:14;;;;;;;1.60;1.30;;;4.80;98.20;;;;;;4980771;28;20534;-77
2021/01/28 09:01:43;;;;;;;1.70;1.40;;;4.80;98.20;;;;;;4976977;28;20556;-78
2021/01/28 09:04:14;;;;;;;1.70;1.40;;;4.80;98.20;;;;;;4979360;28;20505;-77
2021/01/28 09:06:43;;;;;;;1.67;1.30;;;4.90;98.20;;;;;;4974041;28;20470;-78
2021/01/28 09:09:23;;;;;;;1.70;1.50;;;4.90;98.20;;;;;;4978662;28;20473;-77
2021/01/28 09:11:52;;;;;;;1.70;1.40;;;4.90;98.20;;;;;;4971145;28;20493;-78
2021/01/28 09:14:32;;;;;;;1.70;1.40;;;4.90;98.20;;;;;;4977163;28;20464;-77
2021/01/28 09:17:01;;;;;;;1.70;1.43;;;4.90;98.20;;;;;;4976145;28;20617;-77
2021/01/28 09:19:29;;;;;;;1.60;1.30;;;4.90;98.20;;;;;;4974448;28;20748;-78
2021/01/28 09:22:00;;;;;;;1.63;1.30;;;4.90;98.20;;;;;;4974975;28;20520;-76
2021/01/28 09:24:36;;;;;;;1.60;1.30;;;4.90;98.20;;;;;;4970450;28;20470;-76
2021/01/28 09:27:16;;;;;;;1.60;1.30;;;4.90;98.20;;;;;;4976279;28;20576;-79
2021/01/28 09:29:44;;;;;;;1.70;1.40;;;4.90;98.20;;;;;;4977557;28;20481;-76
2021/01/28 09:32:14;;;;;;;1.63;1.30;;;4.90;98.20;;;;;;4971410;28;20530;-76
2021/01/28 09:34:41;;;;;;;1.60;1.30;;;4.90;98.20;;;;;;4970776;28;20501;-77
2021/01/28 09:37:14;;;;;;;1.67;1.30;;;4.90;98.20;;;;;;4971857;28;20521;-77
2021/01/28 09:39:43;;;;;;;1.70;1.40;;;4.90;98.20;;;;;;4978710;28;20592;-78
2021/01/28 09:42:21;;;;;;;1.63;1.30;;;5.00;98.20;;;;;;4976556;28;20485;-78
2021/01/28 09:44:49;;;;;;;1.60;1.30;;;5.00;98.20;;;;;;4972276;28;21040;-78
2021/01/28 09:47:22;;;;;;;1.63;1.30;;;5.00;98.20;;;;;;4974785;28;20477;-78
2021/01/28 09:49:51;;;;;;;1.70;1.40;;;5.00;98.20;;;;;;4970834;28;20505;-78
2021/01/28 09:52:22;;;;;;;1.60;1.23;;;5.00;98.20;;;;;;4978015;28;20485;-77
2021/01/28 09:54:54;;;;;;;1.60;1.27;;;5.00;98.20;;;;;;4971584;28;20972;-78
2021/01/28 09:57:21;;;;;;;1.63;1.30;;;5.10;98.20;;;;;;4979444;28;20500;-77
2021/01/28 09:59:48;;;;;;;1.60;1.30;;;5.10;98.20;;;;;;4969243;28;20473;-78
2021/01/28 10:02:19;;;;;;;1.60;1.30;;;5.10;98.20;;;;;;4971229;28;20485;-77
2021/01/28 10:04:46;;;;;;;1.70;1.50;;;5.10;98.20;;;;;;4975852;28;20913;-78
2021/01/28 10:07:13;;;;;;;1.60;1.30;;;5.10;98.20;;;;;;4976885;28;20869;-76
2021/01/28 10:09:40;;;;;;;1.70;1.30;;;5.10;98.20;;;;;;4972937;28;20516;-78
2021/01/28 10:12:07;;;;;;;1.60;1.40;;;5.10;98.20;;;;;;4978840;28;20496;-77
2021/01/28 10:14:34;;;;;;;1.63;1.30;;;5.10;98.20;;;;;;4980755;28;20466;-78
2021/01/28 10:17:00;;;;;;;1.63;1.30;;;5.20;98.20;;;;;;4973171;28;20610;-77
2021/01/28 10:19:27;;;;;;;1.60;1.30;;;5.20;98.20;;;;;;4974666;28;20523;-76
2021/01/28 10:21:53;;;;;;;1.63;1.40;;;5.20;98.20;;;;;;4975544;28;20500;-78
2021/01/28 10:24:20;;;;;;;1.60;1.30;;;5.20;98.20;;;;;;4977880;28;20476;-78
2021/01/28 10:26:46;;;;;;;1.70;1.60;;;5.20;98.20;;;;;;4982256;28;20496;-78
2021/01/28 10:29:13;;;;;;;1.67;1.37;;;5.20;98.20;;;;;;4978795;28;20791;-78
2021/01/28 10:31:40;;;;;;;1.60;1.20;;;5.20;98.20;;;;;;4979012;28;20513;-77
2021/01/28 10:34:07;;;;;;;1.70;1.40;;;5.30;98.20;;;;;;4976047;28;20476;-76
2021/01/28 10:36:33;;;;;;;1.60;1.30;;;5.30;98.20;;;;;;4979386;28;20469;-78
2021/01/28 10:39:00;;;;;;;1.60;1.30;;;5.30;98.20;;;;;;4974563;28;20473;-77
2021/01/28 10:41:29;;;;;;;1.70;1.30;;;5.40;98.20;;;;;;4975183;28;20582;-76
2021/01/28 10:43:56;;;;;;;1.60;1.30;;;5.40;98.20;;;;;;4978715;28;21007;-78
2021/01/28 10:46:22;;;;;;;1.70;1.40;;;5.40;98.20;;;;;;4984514;28;20466;-78
2021/01/28 10:48:50;;;;;;;1.63;1.30;;;5.40;98.20;;;;;;4972859;28;20537;-78
2021/01/28 10:51:17;;;;;;;1.60;1.30;;;5.40;98.20;;;;;;4973185;28;20485;-76
2021/01/28 10:53:43;;;;;;;1.63;1.30;;;5.40;98.20;;;;;;4971536;28;20998;-76
2021/01/28 10:56:10;;;;;;;1.67;1.30;;;5.40;98.20;;;;;;4972127;28;20549;-77
2021/01/28 10:58:37;;;;;;;1.60;1.23;;;5.50;98.20;;;;;;4972542;28;20489;-75
2021/01/28 11:01:04;;;;;;;1.70;1.30;;;5.50;98.20;;;;;;4974073;28;20637;-76
2021/01/28 11:03:30;;;;;;;1.67;1.40;;;5.50;98.20;;;;;;4972185;28;20493;-75
2021/01/28 11:05:58;;;;;;;1.70;1.40;;;5.50;98.20;;;;;;4975709;28;20939;-80
2021/01/28 11:08:27;;;;;;;1.63;1.30;;;5.60;98.20;;;;;;4979702;28;20468;-78
2021/01/28 11:10:54;;;;;;;1.60;1.30;;;5.60;98.20;;;;;;4977734;28;20544;-78
2021/01/28 11:13:20;;;;;;;1.67;1.30;;;5.60;98.20;;;;;;4981024;28;20468;-76
2021/01/28 11:15:47;;;;;;;1.67;1.30;;;5.60;98.20;;;;;;4975857;28;20516;-77
2021/01/28 11:18:13;;;;;;;1.60;1.30;;;5.60;98.20;;;;;;4976561;28;20521;-78
2021/01/28 11:20:40;;;;;;;1.60;1.20;;;5.70;98.20;;;;;;4978143;28;20485;-77
2021/01/28 11:23:08;;;;;;;1.60;1.30;;;5.70;98.20;;;;;;4974110;28;20466;-79
2021/01/28 11:25:35;;;;;;;1.60;1.20;;;5.70;98.20;;;;;;4978892;28;20896;-76
2021/01/28 11:28:01;;;;;;;1.60;1.20;;;5.70;98.20;;;;;;4979538;28;20468;-76
2021/01/28 11:30:30;;;;;;;1.60;1.30;;;5.70;98.20;;;;;;4981729;28;20510;-78
2021/01/28 11:32:57;;;;;;;1.60;1.30;;;5.70;98.20;;;;;;4982046;28;20496;-78
2021/01/28 11:35:26;;;;;;;1.60;1.30;;;5.70;98.20;;;;;;4975486;28;20477;-78
2021/01/28 11:37:53;;;;;;;1.63;1.30;;;5.70;98.20;;;;;;4974876;28;20493;-76
2021/01/28 11:40:22;;;;;;;1.70;1.30;;;5.70;98.20;;;;;;4973552;28;20501;-78
2021/01/28 11:42:49;;;;;;;1.60;1.30;;;5.80;98.20;;;;;;4976798;28;20466;-78
2021/01/28 11:45:18;;;;;;;1.60;1.30;;;5.80;98.20;;;;;;4979774;28;20508;-79
2021/01/28 11:47:44;;;;;;;1.60;1.30;;;5.80;98.20;;;;;;4975419;28;20493;-77
2021/01/28 11:50:12;;;;;;;1.63;1.30;;;5.80;98.20;;;;;;4973519;28;20752;-77
2021/01/28 11:52:38;;;;;;;1.60;1.30;;;5.80;98.20;;;;;;4977464;28;20498;-77
2021/01/28 11:55:08;;;;;;;1.60;1.30;;;5.90;98.20;;;;;;4974058;28;20498;-78
2021/01/28 11:57:36;;;;;;;1.70;1.40;;;5.90;98.20;;;;;;4980454;28;20521;-79
2021/01/28 12:00:05;;;;;;;1.60;1.30;;;5.90;98.20;;;;;;4980497;28;20470;-78
2021/01/28 12:02:31;;;;;;;1.60;1.30;;;5.90;98.20;;;;;;4976261;28;20535;-76
2021/01/28 12:04:58;;;;;;;1.60;1.30;;;6.00;98.20;;;;;;4977226;28;20582;-77
2021/01/28 12:07:24;;;;;;;1.70;1.40;;;6.00;98.20;;;;;;4975728;28;20965;-77
2021/01/28 12:09:51;;;;;;;1.60;1.23;;;5.90;98.20;;;;;;4979181;28;20462;-79
2021/01/28 12:12:18;;;;;;;1.63;1.33;;;6.00;98.20;;;;;;4979508;28;20580;-78
2021/01/28 12:14:45;;;;;;;1.60;1.20;;;6.00;98.20;;;;;;4973118;28;20953;-77
2021/01/28 12:17:12;;;;;;;1.60;1.30;;;6.00;98.20;;;;;;4972263;28;20574;-77
2021/01/28 12:19:38;;;;;;;1.60;1.30;;;6.10;98.20;;;;;;4973854;28;20470;-78
2021/01/28 12:22:05;;;;;;;1.60;1.30;;;6.20;98.20;;;;;;4978140;28;20520;-78
2021/01/28 12:24:32;;;;;;;1.70;1.43;;;6.20;98.20;;;;;;4976583;28;20750;-78
2021/01/28 12:26:59;;;;;;;1.70;1.30;;;6.30;98.20;;;;;;4984823;28;20465;-78
2021/01/28 12:29:26;;;;;;;1.60;1.30;;;6.30;98.20;;;;;;4980147;28;21015;-76
2021/01/28 12:31:53;;;;;;;1.67;1.30;;;6.40;98.20;;;;;;4974223;28;20813;-78
2021/01/28 12:34:21;;;;;;;1.67;1.30;;;6.40;98.20;;;;;;4975932;28;20470;-77
2021/01/28 12:36:48;;;;;;;1.60;1.30;;;6.40;98.20;;;;;;4971215;28;20521;-79
2021/01/28 12:39:15;;;;;;;1.70;1.40;;;6.40;98.20;;;;;;4976066;28;20458;-78
2021/01/28 12:41:42;;;;;;;1.63;1.30;;;6.50;98.20;;;;;;4982385;28;20588;-77
2021/01/28 12:44:08;;;;;;;1.60;1.27;;;6.50;98.20;;;;;;4977496;28;20556;-75
2021/01/28 12:46:35;;;;;;;1.67;1.30;;;6.50;98.20;;;;;;4975285;28;20464;-77
2021/01/28 12:49:02;;;;;;;1.70;1.40;;;6.50;98.20;;;;;;4972331;28;21433;-79
2021/01/28 12:51:29;;;;;;;1.67;1.30;;;6.50;98.20;;;;;;4970464;28;20580;-76
2021/01/28 12:53:56;;;;;;;1.70;1.30;;;6.50;98.20;;;;;;4973022;28;20454;-76
2021/01/28 12:56:22;;;;;;;1.63;1.30;;;6.60;98.20;;;;;;4980899;28;20465;-77
2021/01/28 12:58:49;;;;;;;1.63;1.20;;;6.60;98.20;;;;;;4976395;28;20519;-76
2021/01/28 13:01:15;;;;;;;1.60;1.30;;;6.70;98.20;;;;;;4976785;28;20552;-77
2021/01/28 13:03:41;;;;;;;1.63;1.20;;;6.70;98.20;;;;;;4970905;28;20600;-76
2021/01/28 13:06:09;;;;;;;1.63;1.30;;;6.70;98.20;;;;;;4978606;28;20502;-78
2021/01/28 13:08:36;;;;;;;1.60;1.30;;;6.70;98.20;;;;;;4976129;28;20470;-78
2021/01/28 13:11:02;;;;;;;1.60;1.27;;;6.70;98.20;;;;;;4977521;28;20489;-77
2021/01/28 13:13:28;;;;;;;1.70;1.30;;;6.80;98.20;;;;;;4975305;28;20470;-77
2021/01/28 13:15:55;;;;;;;1.67;1.40;;;6.80;98.20;;;;;;4973654;28;20510;-77